Time;durP1;ratioP1;P1;durP2;ratioP2;P2;SDS_P1;SDS_P2;PMS_P1;PMS_P2;Temp;Humidity;BMP_temperature;BMP_pressure;BME280_temperature;BME280_humidity;BME280_pressure;Samples;Min_cycle;Max_cycle;Signal;HPM_P1;HPM_P2
2023/02/19 00:02:22;;;;;;;20.80;13.03;;;;;;;4.86;100.00;101527.75;4983633;28;20192;-70
2023/02/19 00:04:48;;;;;;;21.77;13.33;;;;;;;4.85;100.00;101521.81;4990014;28;20219;-71
2023/02/19 00:07:13;;;;;;;22.40;15.10;;;;;;;4.86;100.00;101522.69;4987163;28;20255;-71
2023/02/19 00:09:39;;;;;;;19.10;13.40;;;;;;;4.86;100.00;101517.59;4986160;28;20246;-69
2023/02/19 00:12:04;;;;;;;17.80;12.77;;;;;;;4.88;100.00;101516.03;4988559;28;20657;-71
2023/02/19 00:14:30;;;;;;;22.93;14.03;;;;;;;4.87;100.00;101525.31;4986081;28;20193;-71
2023/02/19 00:16:55;;;;;;;16.90;13.47;;;;;;;4.88;100.00;101528.72;4986121;28;20215;-71
2023/02/19 00:19:21;;;;;;;18.17;13.27;;;;;;;4.90;100.00;101532.19;4987250;28;20202;-69
2023/02/19 00:21:50;;;;;;;22.10;13.37;;;;;;;4.89;100.00;101533.88;4990151;28;20223;-71
2023/02/19 00:24:15;;;;;;;20.10;13.67;;;;;;;4.89;100.00;101530.47;4983749;28;20192;-68
2023/02/19 00:26:42;;;;;;;17.53;13.40;;;;;;;4.90;100.00;101530.56;4987896;28;20761;-71
2023/02/19 00:29:12;;;;;;;21.73;13.50;;;;;;;4.88;100.00;101533.81;4988838;28;20211;-69
2023/02/19 00:31:39;;;;;;;20.53;14.10;;;;;;;4.90;100.00;101534.75;4986279;28;20223;-71
2023/02/19 00:34:05;;;;;;;20.37;14.83;;;;;;;4.90;100.00;101527.13;4987097;28;20191;-70
2023/02/19 00:36:34;;;;;;;20.53;13.63;;;;;;;4.87;100.00;101526.94;4986528;28;20201;-71
2023/02/19 00:39:00;;;;;;;20.20;14.40;;;;;;;4.87;100.00;101519.34;4985973;28;20606;-71
2023/02/19 00:41:26;;;;;;;22.83;14.30;;;;;;;4.88;100.00;101521.13;4985677;28;20214;-70
2023/02/19 00:43:54;;;;;;;23.67;15.27;;;;;;;4.87;100.00;101512.63;4990525;28;20187;-71
2023/02/19 00:46:24;;;;;;;20.83;14.60;;;;;;;4.88;100.00;101511.81;4984111;28;20192;-71
2023/02/19 00:48:53;;;;;;;20.47;15.40;;;;;;;4.87;100.00;101514.28;4988038;28;20528;-71
2023/02/19 00:51:22;;;;;;;22.80;16.13;;;;;;;4.86;100.00;101520.16;4986955;28;20211;-70
2023/02/19 00:53:48;;;;;;;22.53;16.17;;;;;;;4.85;100.00;101521.81;4986368;28;20299;-71
2023/02/19 00:56:14;;;;;;;21.80;16.13;;;;;;;4.86;100.00;101521.03;4984672;28;20294;-70
2023/02/19 00:58:39;;;;;;;22.87;15.60;;;;;;;4.87;100.00;101527.84;4986882;28;20563;-70
2023/02/19 01:01:06;;;;;;;21.33;15.23;;;;;;;4.87;100.00;101535.44;4984097;28;20216;-71
2023/02/19 01:03:35;;;;;;;24.30;15.03;;;;;;;4.86;100.00;101525.22;4985362;28;20707;-69
2023/02/19 01:06:03;;;;;;;27.47;15.90;;;;;;;4.86;100.00;101521.03;4988380;28;20822;-70
2023/02/19 01:08:32;;;;;;;23.40;15.07;;;;;;;4.85;100.00;101524.38;4986853;28;20195;-70
2023/02/19 01:11:00;;;;;;;20.13;14.70;;;;;;;4.84;100.00;101525.13;4984011;28;20203;-70
2023/02/19 01:13:27;;;;;;;21.47;14.60;;;;;;;4.83;100.00;101528.47;4985016;28;20862;-70
2023/02/19 01:15:53;;;;;;;22.07;14.37;;;;;;;4.86;100.00;101532.81;4984937;28;20346;-70
2023/02/19 01:18:19;;;;;;;20.33;14.23;;;;;;;4.84;100.00;101540.34;4985502;28;20257;-70
2023/02/19 01:20:46;;;;;;;21.60;15.00;;;;;;;4.83;100.00;101530.16;4990281;28;20204;-69
2023/02/19 01:23:12;;;;;;;22.53;15.20;;;;;;;4.81;100.00;101534.25;4988283;28;20278;-70
2023/02/19 01:25:40;;;;;;;24.03;15.93;;;;;;;4.83;100.00;101525.94;4989304;28;20249;-70
2023/02/19 01:28:06;;;;;;;24.60;16.40;;;;;;;4.83;100.00;101527.63;4989816;28;20258;-71
2023/02/19 01:30:35;;;;;;;27.93;17.37;;;;;;;4.83;100.00;101527.63;4983632;28;20708;-70
2023/02/19 01:33:00;;;;;;;27.07;18.53;;;;;;;4.84;100.00;101526.81;4989853;28;20756;-71
2023/02/19 01:35:26;;;;;;;26.37;17.87;;;;;;;4.86;100.00;101526.09;4981423;28;20243;-70
2023/02/19 01:37:52;;;;;;;31.67;19.77;;;;;;;4.86;100.00;101523.56;4985443;28;20207;-70
2023/02/19 01:40:17;;;;;;;33.33;20.50;;;;;;;4.87;100.00;101527.84;4983584;28;20235;-68
2023/02/19 01:42:43;;;;;;;29.27;19.23;;;;;;;4.84;100.00;101527.66;5001530;28;20292;-70
2023/02/19 01:45:23;;;;;;;27.93;18.10;;;;;;;4.86;100.00;101526.09;4984446;28;20222;-71
2023/02/19 01:48:03;;;;;;;25.87;18.53;;;;;;;4.85;100.00;101518.41;4987032;28;20199;-71
2023/02/19 01:50:35;;;;;;;27.27;18.17;;;;;;;4.85;100.00;101519.28;4998858;28;20850;-70
2023/02/19 01:53:05;;;;;;;31.93;18.80;;;;;;;4.86;100.00;101515.97;4985657;28;20196;-70
2023/02/19 01:55:32;;;;;;;27.23;18.03;;;;;;;4.86;100.00;101518.50;4984004;28;20235;-70
2023/02/19 01:57:59;;;;;;;27.30;18.00;;;;;;;4.83;100.00;101518.31;4986577;28;20696;-70
2023/02/19 02:00:24;;;;;;;28.40;18.03;;;;;;;4.83;100.00;101513.25;4981997;28;20209;-69
2023/02/19 02:02:54;;;;;;;29.20;18.70;;;;;;;4.79;100.00;101511.34;4985289;28;20202;-71
2023/02/19 02:05:45;;;;;;;32.10;18.53;;;;;;;4.82;100.00;101515.69;4984459;28;20184;-70
2023/02/19 02:10:57;;;;;;;31.97;18.03;;;;;;;4.79;100.00;101511.34;4988557;28;20215;-70
2023/02/19 02:13:23;;;;;;;30.57;18.40;;;;;;;4.79;100.00;101515.56;4985261;28;20302;-69
2023/02/19 02:16:07;;;;;;;29.60;18.07;;;;;;;4.79;100.00;101516.41;4984834;28;20298;-71
2023/02/19 02:18:53;;;;;;;33.73;18.00;;;;;;;4.80;100.00;101513.09;4986460;28;20204;-70
2023/02/19 02:22:05;;;;;;;27.73;17.37;;;;;;;4.80;100.00;101509.69;4980631;28;20231;-70
2023/02/19 02:25:01;;;;;;;27.87;17.43;;;;;;;4.76;100.00;101515.38;4984926;28;20203;-69
2023/02/19 02:27:50;;;;;;;27.03;15.60;;;;;;;4.73;100.00;101520.28;4984768;28;20184;-70
2023/02/19 02:30:26;;;;;;;15.17;9.70;;;;;;;4.66;100.00;101514.03;4984610;28;20327;-70
2023/02/19 02:33:11;;;;;;;14.10;7.97;;;;;;;4.59;100.00;101509.41;4983106;28;20215;-69
2023/02/19 02:35:50;;;;;;;10.10;6.03;;;;;;;4.57;100.00;101518.63;4999217;28;20222;-71
2023/02/19 02:38:19;;;;;;;9.97;4.20;;;;;;;4.54;100.00;101520.09;4985101;28;20282;-70
2023/02/19 02:40:46;;;;;;;9.90;4.30;;;;;;;4.51;100.00;101517.41;4991419;28;20207;-71
2023/02/19 02:43:13;;;;;;;8.70;3.20;;;;;;;4.44;100.00;101525.47;4982858;28;20211;-69
2023/02/19 02:45:39;;;;;;;13.03;3.70;;;;;;;4.43;100.00;101529.69;4986548;28;20192;-71
2023/02/19 02:48:23;;;;;;;8.70;3.20;;;;;;;4.41;100.00;101533.78;4985145;28;20188;-70
2023/02/19 02:51:02;;;;;;;7.13;2.90;;;;;;;4.35;100.00;101535.09;4986065;28;20298;-69
2023/02/19 02:56:28;;;;;;;5.47;2.53;;;;;;;4.31;100.00;101535.72;4984414;28;20227;-71
2023/02/19 02:58:57;;;;;;;6.17;3.07;;;;;;;4.28;100.00;101541.50;4981164;28;20193;-69
2023/02/19 03:07:46;;;;;;;8.70;2.50;;;;;;;4.15;100.00;101531.47;4984685;28;20573;-71
2023/02/19 03:10:19;;;;;;;8.03;2.67;;;;;;;4.18;100.00;101528.25;4984029;28;20223;-70
2023/02/19 03:21:19;;;;;;;8.33;2.50;;;;;;;4.14;100.00;101542.38;4985185;28;20208;-70
2023/02/19 03:26:31;;;;;;;10.43;3.17;;;;;;;4.15;100.00;101540.75;4984515;28;20196;-68
2023/02/19 03:31:46;;;;;;;7.90;2.30;;;;;;;4.11;100.00;101549.84;4982274;28;20584;-71
2023/02/19 03:34:20;;;;;;;9.90;3.57;;;;;;;4.11;100.00;101551.47;4988273;28;20345;-70
2023/02/19 03:36:57;;;;;;;6.43;2.40;;;;;;;4.10;100.00;101554.81;4978960;28;20212;-70
2023/02/19 03:39:23;;;;;;;10.17;2.77;;;;;;;4.10;100.00;101554.81;4978819;28;20192;-70
2023/02/19 03:41:54;;;;;;;9.20;2.53;;;;;;;4.10;100.00;101563.28;4978998;28;20649;-71
2023/02/19 03:44:33;;;;;;;10.20;2.53;;;;;;;4.09;100.00;101564.06;4993572;28;20200;-69
2023/02/19 03:47:08;;;;;;;9.57;3.10;;;;;;;4.08;100.00;101572.47;4978288;28;20525;-68
2023/02/19 03:49:54;;;;;;;12.10;2.57;;;;;;;4.09;100.00;101566.59;4984731;28;20286;-71
2023/02/19 03:52:35;;;;;;;7.10;1.83;;;;;;;4.07;100.00;101573.25;4997962;28;20680;-69
2023/02/19 03:55:29;;;;;;;8.70;2.07;;;;;;;4.05;100.00;101569.75;4976850;28;20226;-71
2023/02/19 03:58:21;;;;;;;5.10;2.23;;;;;;;4.07;100.00;101572.38;4997670;28;20286;-70
2023/02/19 04:00:54;;;;;;;4.77;1.90;;;;;;;4.06;100.00;101575.69;4985040;28;20270;-68
2023/02/19 04:03:25;;;;;;;8.50;2.73;;;;;;;4.05;100.00;101586.63;4981846;28;20196;-70
2023/02/19 04:05:58;;;;;;;8.43;2.40;;;;;;;4.06;100.00;101584.19;4983327;28;20215;-70
2023/02/19 04:08:25;;;;;;;6.73;2.03;;;;;;;4.05;100.00;101576.47;4985255;28;20278;-70
2023/02/19 04:10:59;;;;;;;9.90;2.07;;;;;;;4.04;100.00;101584.84;4987342;28;20211;-70
2023/02/19 04:13:41;;;;;;;9.87;2.23;;;;;;;4.04;100.00;101589.91;4984828;28;20192;-70
2023/02/19 04:16:12;;;;;;;10.13;2.63;;;;;;;4.06;100.00;101583.28;4981798;28;20216;-69
2023/02/19 04:18:42;;;;;;;7.40;2.10;;;;;;;4.04;100.00;101595.88;4985869;28;20206;-70
2023/02/19 04:21:09;;;;;;;8.17;2.30;;;;;;;4.05;100.00;101589.16;4974538;28;20296;-70
2023/02/19 04:23:41;;;;;;;7.27;2.50;;;;;;;4.05;100.00;101592.53;4975957;28;20201;-70
2023/02/19 04:26:08;;;;;;;10.13;2.73;;;;;;;4.03;100.00;101598.31;4986279;28;20188;-71
2023/02/19 04:28:34;;;;;;;6.80;2.27;;;;;;;4.04;100.00;101595.88;4984492;28;20206;-69
2023/02/19 04:31:00;;;;;;;9.40;2.57;;;;;;;4.04;100.00;101598.41;4983044;28;20219;-70
2023/02/19 04:33:26;;;;;;;5.80;2.33;;;;;;;4.04;100.00;101600.94;4982376;28;20590;-68
2023/02/19 04:35:51;;;;;;;11.43;3.10;;;;;;;4.01;100.00;101603.28;4986710;28;20211;-71
2023/02/19 04:38:17;;;;;;;7.83;2.37;;;;;;;4.01;100.00;101610.03;4988572;28;20192;-71
2023/02/19 04:40:42;;;;;;;6.97;2.40;;;;;;;4.02;100.00;101612.66;4985477;28;20652;-69
2023/02/19 04:43:08;;;;;;;8.30;2.57;;;;;;;4.03;100.00;101626.16;4986236;28;20191;-70
2023/02/19 04:45:33;;;;;;;11.27;2.60;;;;;;;4.02;100.00;101632.91;4981784;28;20191;-70
2023/02/19 04:47:58;;;;;;;7.00;2.30;;;;;;;4.00;100.00;101633.63;4984293;28;20987;-70
2023/02/19 04:50:24;;;;;;;7.97;3.03;;;;;;;3.99;100.00;101645.41;4987944;28;20611;-70
2023/02/19 04:52:50;;;;;;;9.00;2.90;;;;;;;3.97;100.00;101641.03;4989727;28;20199;-69
2023/02/19 04:55:16;;;;;;;9.27;3.10;;;;;;;3.98;100.00;101647.84;4980582;28;20192;-71
2023/02/19 04:57:41;;;;;;;8.17;3.30;;;;;;;3.99;100.00;101655.53;4982041;28;20242;-70
2023/02/19 05:00:08;;;;;;;6.37;2.80;;;;;;;3.95;100.00;101648.53;4987731;28;20219;-70
2023/02/19 05:02:33;;;;;;;10.70;4.00;;;;;;;3.95;100.00;101648.53;4988777;28;20206;-70
2023/02/19 05:04:59;;;;;;;10.73;3.20;;;;;;;3.96;100.00;101652.81;4984353;28;20192;-70
2023/02/19 05:07:24;;;;;;;7.50;3.17;;;;;;;3.95;100.00;101650.22;4988067;28;20254;-71
2023/02/19 05:09:49;;;;;;;10.07;3.13;;;;;;;3.93;100.00;101654.28;4985981;28;20200;-70
2023/02/19 05:12:15;;;;;;;7.53;3.10;;;;;;;3.91;100.00;101651.66;4984706;28;20245;-70
2023/02/19 05:14:40;;;;;;;6.83;3.20;;;;;;;3.89;100.00;101659.97;4989415;28;20668;-70
2023/02/19 05:17:06;;;;;;;10.93;3.77;;;;;;;3.87;100.00;101654.81;4989069;28;20287;-69
2023/02/19 05:19:31;;;;;;;11.20;3.97;;;;;;;3.88;100.00;101659.09;4981854;28;20207;-70
2023/02/19 05:21:56;;;;;;;8.57;3.90;;;;;;;3.87;100.00;101664.94;4981949;28;20217;-70
2023/02/19 05:24:23;;;;;;;8.80;3.37;;;;;;;3.86;100.00;101665.72;4984913;28;20200;-71
2023/02/19 05:26:49;;;;;;;10.63;4.30;;;;;;;3.84;100.00;101671.50;4990018;28;20711;-70
2023/02/19 05:29:15;;;;;;;6.80;4.13;;;;;;;3.82;100.00;101668.84;4983145;28;20283;-69
2023/02/19 05:31:41;;;;;;;12.53;4.97;;;;;;;3.78;100.00;101661.84;4986261;28;20291;-70
2023/02/19 05:34:06;;;;;;;9.40;4.00;;;;;;;3.75;100.00;101666.75;4980961;28;20198;-71
2023/02/19 05:36:32;;;;;;;9.10;4.20;;;;;;;3.70;100.00;101662.19;4985727;28;20212;-69
2023/02/19 05:38:57;;;;;;;10.13;4.20;;;;;;;3.68;100.00;101666.31;4989137;28;20250;-70
2023/02/19 05:41:28;;;;;;;6.17;3.63;;;;;;;3.65;100.00;101668.66;4984531;28;20216;-69
2023/02/19 05:43:54;;;;;;;12.70;3.90;;;;;;;3.60;100.00;101670.91;4984751;28;20207;-70
2023/02/19 05:46:23;;;;;;;7.40;3.67;;;;;;;3.54;100.00;101689.94;4983651;28;20188;-67
2023/02/19 05:48:49;;;;;;;9.27;3.77;;;;;;;3.50;100.00;101696.44;4987020;28;20657;-69
2023/02/19 05:51:17;;;;;;;10.70;3.70;;;;;;;3.51;100.00;101697.31;4987402;28;20224;-70
2023/02/19 05:53:44;;;;;;;10.40;4.17;;;;;;;3.45;100.00;101702.03;4984534;28;20227;-70
2023/02/19 05:56:24;;;;;;;8.83;4.13;;;;;;;3.40;100.00;101703.41;4990467;28;20227;-70
2023/02/19 05:58:50;;;;;;;9.13;4.30;;;;;;;3.38;100.00;101707.47;4984708;28;20231;-69
2023/02/19 06:01:17;;;;;;;7.60;3.53;;;;;;;3.35;100.00;101704.78;4987125;28;20258;-71
2023/02/19 06:03:42;;;;;;;8.77;4.10;;;;;;;3.31;100.00;101708.75;4986399;28;20222;-69
2023/02/19 06:06:12;;;;;;;10.50;4.53;;;;;;;3.29;100.00;101714.50;4984613;28;20654;-70
2023/02/19 06:08:37;;;;;;;8.60;4.10;;;;;;;3.24;100.00;101714.22;4981431;28;20191;-71
2023/02/19 06:11:03;;;;;;;9.97;4.13;;;;;;;3.22;100.00;101713.25;4989604;28;20634;-70
2023/02/19 06:13:28;;;;;;;9.80;3.90;;;;;;;3.17;100.00;101727.25;4982785;28;20204;-71
2023/02/19 06:15:54;;;;;;;10.50;4.30;;;;;;;3.16;100.00;101738.16;4986481;28;20216;-70
2023/02/19 06:18:19;;;;;;;9.33;4.10;;;;;;;3.15;100.00;101748.19;4985482;28;20192;-69
2023/02/19 06:20:44;;;;;;;9.73;3.70;;;;;;;3.16;100.00;101749.94;4986815;28;20247;-70
2023/02/19 06:23:10;;;;;;;8.00;4.07;;;;;;;3.15;100.00;101759.19;4987835;28;20196;-70
2023/02/19 06:25:35;;;;;;;9.70;5.30;;;;;;;3.10;100.00;101759.66;4982651;28;20185;-68
2023/02/19 06:28:01;;;;;;;9.63;4.13;;;;;;;3.04;100.00;101767.72;4988580;28;20742;-70
2023/02/19 06:30:26;;;;;;;10.73;4.17;;;;;;;3.03;100.00;101773.56;4978773;28;20294;-70
2023/02/19 06:32:52;;;;;;;9.90;4.50;;;;;;;3.01;100.00;101779.31;4989571;28;20898;-70
2023/02/19 06:35:18;;;;;;;11.20;4.43;;;;;;;3.02;100.00;101774.38;4982584;28;20612;-69
2023/02/19 06:37:46;;;;;;;10.63;4.57;;;;;;;3.02;100.00;101784.47;4987800;28;20191;-68
2023/02/19 06:40:11;;;;;;;10.03;5.00;;;;;;;3.02;100.00;101797.13;4979637;28;20581;-70
2023/02/19 06:42:37;;;;;;;13.33;6.57;;;;;;;3.01;100.00;101802.97;4984054;28;20196;-70
2023/02/19 06:45:02;;;;;;;15.83;6.20;;;;;;;3.01;100.00;101810.56;4982921;28;20200;-70
2023/02/19 06:47:32;;;;;;;12.30;5.93;;;;;;;3.01;100.00;101824.84;4984253;28;20187;-70
2023/02/19 06:49:58;;;;;;;14.27;6.73;;;;;;;2.99;100.00;101822.22;4985523;28;20192;-70
2023/02/19 06:52:24;;;;;;;18.17;7.60;;;;;;;3.00;100.00;101829.06;4982210;28;20199;-70
2023/02/19 06:54:49;;;;;;;16.20;7.37;;;;;;;3.01;100.00;101830.78;4982800;28;20191;-70
2023/02/19 06:57:15;;;;;;;18.73;8.07;;;;;;;3.05;100.00;101841.97;4982920;28;20643;-69
2023/02/19 06:59:40;;;;;;;12.67;7.67;;;;;;;3.08;100.00;101840.50;4985571;28;20192;-69
2023/02/19 07:02:06;;;;;;;14.70;7.57;;;;;;;3.11;100.00;101844.91;4978427;28;20652;-70
2023/02/19 07:04:31;;;;;;;16.17;7.63;;;;;;;3.13;100.00;101853.47;4986860;28;20195;-69
2023/02/19 07:06:59;;;;;;;14.27;7.77;;;;;;;3.16;100.00;101856.19;4983435;28;20206;-70
2023/02/19 07:09:24;;;;;;;10.53;7.33;;;;;;;3.16;100.00;101864.66;4983972;28;20200;-71
2023/02/19 07:11:49;;;;;;;19.67;8.93;;;;;;;3.17;100.00;101866.41;4983886;28;20215;-69
2023/02/19 07:14:16;;;;;;;17.63;8.17;;;;;;;3.17;100.00;101868.09;4986601;28;20613;-69
2023/02/19 07:16:42;;;;;;;14.53;7.83;;;;;;;3.13;100.00;101864.44;4982906;28;20310;-70
2023/02/19 07:19:09;;;;;;;16.90;8.30;;;;;;;3.14;100.00;101868.75;4983517;28;20330;-68
2023/02/19 07:21:36;;;;;;;16.07;8.70;;;;;;;3.16;100.00;101863.78;4981177;28;20234;-70
2023/02/19 07:24:03;;;;;;;17.63;8.37;;;;;;;3.16;100.00;101874.78;4987614;28;20800;-71
2023/02/19 07:26:29;;;;;;;15.87;8.10;;;;;;;3.20;100.00;101878.38;4996320;28;20192;-70
2023/02/19 07:28:54;;;;;;;22.33;8.67;;;;;;;3.26;100.00;101881.31;4987983;28;20191;-69
2023/02/19 07:31:22;;;;;;;13.23;7.70;;;;;;;3.33;100.00;101889.41;4983274;28;20994;-70
2023/02/19 07:33:48;;;;;;;18.60;7.23;;;;;;;3.47;100.00;101895.34;4985410;28;20200;-69
2023/02/19 07:36:15;;;;;;;19.47;8.00;;;;;;;3.58;100.00;101892.72;4981164;28;20311;-69
2023/02/19 07:38:41;;;;;;;15.17;7.10;;;;;;;3.64;100.00;101903.22;4966444;28;20346;-71
2023/02/19 07:41:06;;;;;;;14.50;7.63;;;;;;;3.75;100.00;101906.44;4978663;28;20423;-71
2023/02/19 07:43:35;;;;;;;14.80;6.87;;;;;;;3.84;100.00;101910.44;4981651;28;20198;-70
2023/02/19 07:46:10;;;;;;;15.97;7.47;;;;;;;3.92;100.00;101921.91;4987065;28;20179;-71
2023/02/19 07:48:37;;;;;;;12.03;6.20;;;;;;;3.93;100.00;101922.81;4986163;28;20203;-70
2023/02/19 07:51:05;;;;;;;13.70;5.87;;;;;;;3.93;100.00;101917.75;4985568;28;20285;-70
2023/02/19 07:53:32;;;;;;;14.37;5.20;;;;;;;3.98;100.00;101927.38;4985084;28;20192;-70
2023/02/19 07:56:00;;;;;;;10.20;5.00;;;;;;;4.06;100.00;101922.78;4976379;28;20216;-69
2023/02/19 07:58:25;;;;;;;12.57;4.40;;;;;;;4.14;100.00;101935.16;4994413;28;20195;-70
2023/02/19 08:00:51;;;;;;;9.63;4.53;;;;;;;4.34;100.00;101928.78;4985884;28;20207;-70
2023/02/19 08:03:16;;;;;;;10.87;4.33;;;;;;;4.52;100.00;101932.44;4984951;28;20192;-71
2023/02/19 08:05:42;;;;;;;14.90;3.60;;;;;;;4.70;100.00;101943.69;4984037;28;20285;-71
2023/02/19 08:08:16;;;;;;;13.83;4.70;;;;;;;4.84;100.00;101948.78;4981751;28;20282;-71
2023/02/19 08:13:28;;;;;;;8.33;3.70;;;;;;;4.98;100.00;101952.16;4979483;28;20205;-69
2023/02/19 08:16:07;;;;;;;9.73;3.90;;;;;;;5.00;100.00;101959.09;4985808;28;20226;-71
2023/02/19 08:18:33;;;;;;;8.33;3.73;;;;;;;4.95;100.00;101957.94;4990733;28;20203;-71
2023/02/19 08:20:59;;;;;;;8.93;3.80;;;;;;;4.89;100.00;101960.13;4989840;28;20270;-71
2023/02/19 08:23:26;;;;;;;8.33;3.90;;;;;;;4.79;100.00;101967.94;4988506;28;20200;-71
2023/02/19 08:25:52;;;;;;;12.93;3.93;;;;;;;4.80;100.00;101971.34;5004546;28;20206;-71
2023/02/19 08:28:18;;;;;;;11.97;4.23;;;;;;;5.08;100.00;101968.03;4990383;28;20290;-71
2023/02/19 08:30:45;;;;;;;9.07;3.80;;;;;;;5.24;100.00;101967.25;4990811;28;20220;-71
2023/02/19 08:33:16;;;;;;;10.03;3.90;;;;;;;5.50;100.00;101962.91;4985858;28;20677;-71
2023/02/19 08:35:42;;;;;;;11.03;3.77;;;;;;;5.76;100.00;101966.91;4986483;28;20290;-67
2023/02/19 08:38:09;;;;;;;10.77;3.97;;;;;;;5.96;100.00;101963.84;4987255;28;20188;-70
2023/02/19 08:40:35;;;;;;;11.70;4.47;;;;;;;6.17;100.00;101965.03;4988523;28;20294;-71
2023/02/19 08:43:07;;;;;;;10.97;4.53;;;;;;;6.36;100.00;101961.00;4987567;28;20192;-71
2023/02/19 08:45:32;;;;;;;11.03;4.27;;;;;;;6.56;100.00;101970.59;4986425;28;20188;-69
2023/02/19 08:47:59;;;;;;;10.40;3.87;;;;;;;6.75;100.00;101975.88;4974340;28;20195;-69
2023/02/19 08:50:25;;;;;;;7.13;3.27;;;;;;;6.90;100.00;101983.41;4988420;28;20233;-70
2023/02/19 08:52:51;;;;;;;6.50;3.13;;;;;;;7.16;100.00;101986.53;4988788;28;20246;-70
2023/02/19 08:55:17;;;;;;;7.37;3.43;;;;;;;7.43;100.00;101987.03;4981864;28;20226;-69
2023/02/19 08:57:42;;;;;;;8.50;3.13;;;;;;;7.75;100.00;102000.59;4986560;28;20200;-69
2023/02/19 09:00:10;;;;;;;8.53;3.20;;;;;;;7.92;100.00;102009.06;4990277;28;20247;-71
2023/02/19 09:02:35;;;;;;;7.23;2.97;;;;;;;8.27;100.00;102016.72;4986737;28;20219;-69
2023/02/19 09:05:01;;;;;;;8.60;3.50;;;;;;;8.56;100.00;102013.84;4989468;28;20199;-68
2023/02/19 09:07:27;;;;;;;6.40;2.93;;;;;;;8.94;100.00;102025.00;4984425;28;20188;-69
2023/02/19 09:09:53;;;;;;;6.00;3.00;;;;;;;9.35;100.00;102025.13;4984755;28;20509;-69
2023/02/19 09:12:18;;;;;;;6.70;2.77;;;;;;;9.54;100.00;102022.56;4983769;28;20203;-72
2023/02/19 09:14:44;;;;;;;6.37;2.87;;;;;;;10.66;100.00;102020.31;4985417;28;20203;-72
2023/02/19 09:17:10;;;;;;;6.07;2.30;;;;;;;13.59;100.00;102022.22;4981030;28;20213;-67
2023/02/19 09:19:35;;;;;;;7.45;2.60;;;;;;;15.84;99.28;102016.91;4990687;28;20239;-70
2023/02/19 09:22:02;;;;;;;8.93;2.58;;;;;;;16.97;79.95;102014.28;4991210;28;20350;-71
2023/02/19 09:24:28;;;;;;;4.25;2.10;;;;;;;17.81;69.66;102029.03;4986559;28;20199;-71
2023/02/19 09:26:54;;;;;;;5.85;2.30;;;;;;;18.25;61.39;102032.88;4985742;28;20183;-69
2023/02/19 09:29:22;;;;;;;4.68;2.40;;;;;;;18.55;65.17;102043.47;4986352;28;20605;-70
2023/02/19 09:31:48;;;;;;;5.18;2.28;;;;;;;20.28;52.59;102034.47;4987918;28;20612;-70
2023/02/19 09:34:13;;;;;;;6.75;2.60;;;;;;;20.32;48.62;102027.53;4982836;28;20200;-72
2023/02/19 09:36:39;;;;;;;5.22;2.60;;;;;;;21.29;46.01;102028.97;4982118;28;20248;-71
2023/02/19 09:39:06;;;;;;;4.93;2.22;;;;;;;21.37;44.34;102032.41;4981370;28;20203;-71
2023/02/19 09:41:36;;;;;;;4.25;2.30;;;;;;;21.97;42.68;102022.44;4991078;28;20216;-69
2023/02/19 09:44:05;;;;;;;5.63;2.70;;;;;;;19.39;46.80;102037.84;4986526;28;20657;-72
2023/02/19 09:46:35;;;;;;;6.43;2.60;;;;;;;21.77;42.69;102031.28;4974656;28;20235;-70
2023/02/19 09:49:06;;;;;;;4.88;2.22;;;;;;;20.88;41.81;102036.94;4988202;28;20188;-70
2023/02/19 09:51:36;;;;;;;5.05;2.30;;;;;;;21.62;40.21;102039.19;4990586;28;20211;-71
2023/02/19 09:54:05;;;;;;;3.60;1.48;;;;;;;19.32;47.59;102059.47;4983770;28;20187;-71
2023/02/19 09:56:31;;;;;;;4.30;1.80;;;;;;;20.82;46.92;102056.94;4986896;28;20849;-70
2023/02/19 09:58:58;;;;;;;7.88;2.03;;;;;;;16.31;60.09;102065.06;4987022;28;20230;-71
2023/02/19 10:01:29;;;;;;;7.13;2.00;;;;;;;18.93;55.08;102047.16;4985927;28;20235;-69
2023/02/19 10:03:55;;;;;;;8.37;2.10;;;;;;;20.07;50.64;102054.38;4988827;28;20242;-71
2023/02/19 10:06:23;;;;;;;4.63;1.58;;;;;;;22.45;39.74;102042.03;4988582;28;20737;-71
2023/02/19 10:09:14;;;;;;;5.38;1.65;;;;;;;17.65;48.68;102075.53;4986120;28;20291;-69
2023/02/19 10:11:40;;;;;;;7.17;2.00;;;;;;;15.36;65.94;102098.59;4988725;28;21010;-69
2023/02/19 10:14:11;;;;;;;3.23;1.50;;;;;;;22.48;41.12;102078.56;4983845;28;20290;-69
2023/02/19 10:16:42;;;;;;;5.05;1.77;;;;;;;18.76;46.47;102102.44;4986908;28;20223;-69
2023/02/19 10:19:12;;;;;;;5.80;1.50;;;;;;;14.18;80.70;102130.22;4987111;28;20204;-69
2023/02/19 10:21:38;;;;;;;5.17;1.70;;;;;;;17.40;53.68;102110.66;4987984;28;20253;-68
2023/02/19 10:24:06;;;;;;;7.67;1.77;;;;;;;19.64;47.18;102113.28;4985394;28;20203;-69
2023/02/19 10:26:35;;;;;;;4.67;1.70;;;;;;;18.57;57.39;102108.38;4991548;28;20202;-69
2023/02/19 10:29:02;;;;;;;4.70;1.43;;;;;;;16.57;51.78;102129.28;4978592;28;20251;-70
2023/02/19 10:31:31;;;;;;;5.10;1.80;;;;;;;20.53;41.71;102111.66;4983828;28;20227;-70
2023/02/19 10:34:01;;;;;;;4.35;1.40;;;;;;;18.38;43.06;102127.25;4986907;28;20196;-69
2023/02/19 10:36:31;;;;;;;4.23;1.47;;;;;;;19.24;45.23;102133.88;4987849;28;20223;-69
2023/02/19 10:38:58;;;;;;;3.08;1.35;;;;;;;22.66;36.91;102119.31;4984568;28;20238;-70
2023/02/19 10:41:25;;;;;;;3.92;1.42;;;;;;;23.50;33.93;102116.63;4988246;28;20204;-70
2023/02/19 10:44:00;;;;;;;2.45;1.27;;;;;;;22.94;34.80;102120.75;4985931;28;20195;-70
2023/02/19 10:46:33;;;;;;;3.03;1.50;;;;;;;21.08;39.02;102122.84;4977813;28;20260;-70
2023/02/19 10:49:16;;;;;;;3.88;1.27;;;;;;;18.12;43.66;102137.34;4983792;28;20192;-69
2023/02/19 10:51:42;;;;;;;4.55;1.25;;;;;;;22.50;35.85;102123.81;4987028;28;20223;-71
2023/02/19 10:54:27;;;;;;;3.10;1.00;;;;;;;19.00;38.24;102139.81;4985638;28;20661;-70
2023/02/19 10:56:53;;;;;;;3.28;1.05;;;;;;;19.33;37.59;102147.81;4983340;28;20218;-70
2023/02/19 10:59:27;;;;;;;5.20;1.33;;;;;;;14.03;52.31;102166.72;4985496;28;20208;-69
2023/02/19 11:01:59;;;;;;;7.30;1.67;;;;;;;14.38;54.16;102153.09;4982625;28;20211;-68
2023/02/19 11:04:28;;;;;;;2.77;1.10;;;;;;;18.52;45.84;102138.59;4985482;28;20287;-68
2023/02/19 11:06:54;;;;;;;3.53;1.40;;;;;;;21.83;34.89;102133.84;4985187;28;20227;-70
2023/02/19 11:09:33;;;;;;;4.57;1.45;;;;;;;21.56;35.61;102140.94;4983729;28;20235;-69
2023/02/19 11:11:59;;;;;;;2.60;0.93;;;;;;;23.24;31.43;102149.22;4986413;28;20244;-70
2023/02/19 11:14:26;;;;;;;1.95;1.10;;;;;;;23.71;33.76;102160.81;4967061;28;20661;-70
2023/02/19 11:16:55;;;;;;;4.78;1.10;;;;;;;24.33;30.51;102158.19;4986966;28;20265;-71
2023/02/19 11:19:47;;;;;;;3.25;1.20;;;;;;;25.22;29.39;102148.72;4985519;28;20583;-70
2023/02/19 11:22:26;;;;;;;1.65;0.90;;;;;;;25.56;28.78;102152.44;4985294;28;20208;-68
2023/02/19 11:24:52;;;;;;;3.40;1.23;;;;;;;26.16;27.02;102154.56;4983228;28;20754;-67
2023/02/19 11:27:21;;;;;;;1.80;0.98;;;;;;;26.88;26.19;102157.13;4986773;28;20203;-67
2023/02/19 11:29:47;;;;;;;4.85;1.30;;;;;;;25.14;26.51;102143.63;4991061;28;20569;-68
2023/02/19 11:32:31;;;;;;;1.67;1.10;;;;;;;25.58;27.77;102142.75;4980877;28;20192;-69
2023/02/19 11:35:21;;;;;;;3.40;1.23;;;;;;;26.05;25.78;102143.47;4982747;28;20729;-69
2023/02/19 11:38:00;;;;;;;3.92;1.45;;;;;;;25.47;26.72;102134.25;4988502;28;20206;-68
2023/02/19 11:40:49;;;;;;;3.20;1.30;;;;;;;27.22;26.12;102139.56;4985476;28;20287;-69
2023/02/19 11:43:33;;;;;;;3.83;1.50;;;;;;;26.84;25.24;102145.84;4996509;28;20291;-66
2023/02/19 11:46:08;;;;;;;2.83;1.17;;;;;;;26.38;26.11;102155.78;4985990;28;20242;-68
2023/02/19 11:48:44;;;;;;;3.42;1.17;;;;;;;26.77;25.81;102154.81;4990277;28;20187;-69
2023/02/19 11:51:21;;;;;;;2.47;1.15;;;;;;;28.50;24.52;102150.50;4981653;28;20227;-68
2023/02/19 11:54:02;;;;;;;3.15;0.93;;;;;;;25.37;26.94;102169.47;4989123;28;20199;-67
2023/02/19 11:56:35;;;;;;;3.50;1.30;;;;;;;25.87;26.28;102158.75;4986186;28;20302;-67
2023/02/19 11:59:04;;;;;;;2.45;1.02;;;;;;;26.55;25.47;102158.88;4989664;28;20188;-69